Time;durP1;ratioP1;P1;durP2;ratioP2;P2;SDS_P1;SDS_P2;PMS_P1;PMS_P2;Temp;Humidity;BMP_temperature;BMP_pressure;BME280_temperature;BME280_humidity;BME280_pressure;Samples;Min_cycle;Max_cycle;Signal;HPM_P1;HPM_P2
2023/05/05 00:01:01;;;;;;;8.55;5.05;;;;;;;14.54;100.00;98762.75;4972045;28;20030;-62
2023/05/05 00:03:26;;;;;;;10.32;4.53;;;;;;;14.45;100.00;98759.50;4971175;28;20520;-61
2023/05/05 00:05:53;;;;;;;7.60;4.07;;;;;;;14.46;100.00;98762.00;4971351;28;20026;-60
2023/05/05 00:08:19;;;;;;;8.27;4.05;;;;;;;14.41;100.00;98752.84;4978226;28;20437;-60
2023/05/05 00:10:46;;;;;;;7.47;4.10;;;;;;;14.35;100.00;98760.03;4986990;28;20018;-61
2023/05/05 00:13:12;;;;;;;7.40;4.10;;;;;;;14.36;100.00;98760.88;4979758;28;20022;-66
2023/05/05 00:15:40;;;;;;;10.38;4.43;;;;;;;14.45;100.00;98759.50;4978962;28;20025;-66
2023/05/05 00:18:06;;;;;;;7.35;3.90;;;;;;;14.37;100.00;98749.75;4972148;28;20037;-67
2023/05/05 00:20:31;;;;;;;8.73;4.10;;;;;;;14.40;100.00;98759.34;4972405;28;20026;-61
2023/05/05 00:22:58;;;;;;;11.57;4.90;;;;;;;14.37;100.00;98749.75;4988286;28;20053;-61
2023/05/05 00:25:23;;;;;;;8.90;4.30;;;;;;;14.35;100.00;98745.59;4990439;28;20019;-61
2023/05/05 00:27:48;;;;;;;9.27;4.30;;;;;;;14.30;100.00;98751.72;4989821;28;20023;-61
2023/05/05 00:30:14;;;;;;;6.43;4.28;;;;;;;14.25;100.00;98755.13;4974489;28;20026;-61
2023/05/05 00:32:56;;;;;;;9.77;4.40;;;;;;;14.16;100.00;98750.22;4997397;23;20042;-61
2023/05/05 00:35:22;;;;;;;9.65;4.55;;;;;;;14.16;100.00;98756.50;4991758;28;20030;-66
2023/05/05 00:37:48;;;;;;;8.07;4.43;;;;;;;14.12;100.00;98751.72;5004274;28;20113;-66
2023/05/05 00:40:13;;;;;;;14.75;5.35;;;;;;;14.17;100.00;98758.19;4972679;28;20030;-61
2023/05/05 00:42:44;;;;;;;9.50;4.20;;;;;;;14.15;100.00;98757.56;4973831;28;20077;-61
2023/05/05 00:45:14;;;;;;;15.85;4.38;;;;;;;14.09;100.00;98754.91;4975459;28;20022;-61
2023/05/05 00:47:41;;;;;;;;;;;;;;;14.07;100.00;98755.16;4979984;28;20025;-61
2023/05/05 00:50:08;;;;;;;7.35;4.15;;;;;;;14.09;100.00;98763.06;4970263;28;20044;-61
2023/05/05 00:52:37;;;;;;;8.02;4.65;;;;;;;14.04;100.00;98758.31;4975920;28;20026;-61
2023/05/05 00:55:03;;;;;;;8.23;4.32;;;;;;;14.02;100.00;98763.16;4970498;28;20117;-61
2023/05/05 00:57:29;;;;;;;7.95;4.47;;;;;;;14.01;100.00;98751.44;4977174;28;20027;-61
2023/05/05 00:59:57;;;;;;;10.38;4.40;;;;;;;14.02;100.00;98750.38;4976835;28;20038;-60
2023/05/05 01:02:23;;;;;;;7.82;4.15;;;;;;;14.01;100.00;98742.44;4980144;28;20064;-65
2023/05/05 01:04:48;;;;;;;7.88;4.68;;;;;;;14.04;100.00;98758.31;4975511;28;20407;-61
2023/05/05 01:07:25;;;;;;;9.18;4.75;;;;;;;14.06;100.00;98756.19;4993821;28;20029;-61
2023/05/05 01:10:23;;;;;;;8.35;4.57;;;;;;;14.10;100.00;98756.59;4972720;28;20037;-62
2023/05/05 01:13:04;;;;;;;9.00;5.25;;;;;;;13.97;100.00;98749.41;4987141;23;20042;-74
2023/05/05 01:15:34;;;;;;;6.25;4.30;;;;;;;13.96;100.00;98751.31;5000376;28;20038;-74
2023/05/05 01:18:27;;;;;;;7.40;4.88;;;;;;;13.99;100.00;98755.44;5002908;28;20105;-74
2023/05/05 01:21:15;;;;;;;7.55;5.20;;;;;;;13.90;100.00;98746.75;4971890;28;20453;-74
2023/05/05 01:23:59;;;;;;;8.57;5.33;;;;;;;13.86;100.00;98745.56;5001444;28;20117;-74
2023/05/05 01:27:03;;;;;;;12.13;5.35;;;;;;;13.75;100.00;98760.72;4989173;28;20296;-74
2023/05/05 01:29:54;;;;;;;9.00;4.88;;;;;;;13.67;100.00;98752.84;4975180;28;20124;-74
2023/05/05 01:32:25;;;;;;;8.07;5.05;;;;;;;13.80;100.00;98751.88;4989253;28;20058;-74
2023/05/05 01:34:57;;;;;;;10.20;5.55;;;;;;;13.55;100.00;98749.22;4992878;28;20092;-74
2023/05/05 01:37:29;;;;;;;7.57;5.32;;;;;;;13.50;100.00;98751.78;4993010;28;20034;-74
2023/05/05 01:40:00;;;;;;;8.55;4.90;;;;;;;13.51;100.00;98748.81;4993587;28;20037;-74
2023/05/05 01:42:29;;;;;;;8.30;5.07;;;;;;;13.41;100.00;98736.78;4995683;28;20030;-74
2023/05/05 01:44:56;;;;;;;11.57;5.37;;;;;;;13.28;100.00;98738.59;4982683;28;20153;-74
2023/05/05 01:47:22;;;;;;;10.57;5.50;;;;;;;13.23;100.00;98734.81;5007829;28;20288;-74
2023/05/05 01:49:49;;;;;;;7.78;5.30;;;;;;;13.20;100.00;98744.25;4975219;28;20082;-74
2023/05/05 01:52:15;;;;;;;7.97;5.32;;;;;;;13.12;100.00;98744.53;4987726;28;20030;-74
2023/05/05 01:54:43;;;;;;;10.57;5.45;;;;;;;13.01;100.00;98726.25;4967490;28;20033;-74
2023/05/05 01:57:10;;;;;;;9.00;5.40;;;;;;;12.93;100.00;98736.31;4979872;28;20029;-74
2023/05/05 01:59:37;;;;;;;9.85;5.53;;;;;;;12.83;100.00;98741.41;4992605;28;20373;-74
2023/05/05 02:02:03;;;;;;;9.30;5.35;;;;;;;12.75;100.00;98738.97;4988969;28;20038;-74
2023/05/05 02:04:32;;;;;;;9.65;5.60;;;;;;;12.63;100.00;98730.69;4993707;28;20616;-74
2023/05/05 02:06:58;;;;;;;10.00;5.35;;;;;;;12.57;100.00;98741.56;4989549;28;20083;-73
2023/05/05 02:09:25;;;;;;;9.55;5.35;;;;;;;12.55;100.00;98751.81;4996126;28;20025;-74
2023/05/05 02:11:51;;;;;;;8.60;5.50;;;;;;;12.50;100.00;98742.47;4969410;28;20027;-74
2023/05/05 02:14:19;;;;;;;10.05;5.68;;;;;;;12.35;100.00;98736.47;4985959;28;20228;-74
2023/05/05 02:16:45;;;;;;;8.90;5.47;;;;;;;12.33;100.00;98745.88;4974422;28;20038;-74
2023/05/05 02:19:11;;;;;;;10.10;5.38;;;;;;;12.37;100.00;98744.41;4990809;28;20077;-74
2023/05/05 02:21:37;;;;;;;12.57;5.07;;;;;;;12.41;100.00;98751.88;4990291;28;20022;-74
2023/05/05 02:24:02;;;;;;;8.80;5.53;;;;;;;12.43;100.00;98766.06;4992318;28;20103;-74
2023/05/05 02:26:30;;;;;;;7.97;4.82;;;;;;;12.36;100.00;98759.84;4990792;28;20097;-74
2023/05/05 02:29:06;;;;;;;8.52;6.22;;;;;;;12.39;100.00;98767.56;4977346;28;20080;-74
2023/05/05 02:31:35;;;;;;;9.05;5.07;;;;;;;12.36;100.00;98762.53;5005107;28;20145;-74
2023/05/05 02:34:03;;;;;;;8.82;5.63;;;;;;;12.32;100.00;98761.34;5006624;28;20030;-74
2023/05/05 02:36:32;;;;;;;8.55;5.57;;;;;;;12.29;100.00;98756.34;5017370;28;20057;-74
2023/05/05 02:39:03;;;;;;;9.73;5.43;;;;;;;12.32;100.00;98772.19;5005566;28;20030;-74
2023/05/05 02:41:31;;;;;;;9.50;5.07;;;;;;;12.31;100.00;98775.09;4997148;28;20031;-73
2023/05/05 02:44:01;;;;;;;8.77;4.77;;;;;;;12.36;100.00;98778.00;5011890;28;20057;-74
2023/05/05 02:46:27;;;;;;;9.70;5.10;;;;;;;12.26;100.00;98773.88;5007662;28;20282;-74
2023/05/05 02:48:52;;;;;;;9.02;5.65;;;;;;;12.25;100.00;98777.63;4989791;28;20399;-74
2023/05/05 02:51:18;;;;;;;9.45;5.28;;;;;;;12.19;100.00;98778.50;4991416;28;20026;-74
2023/05/05 02:53:43;;;;;;;10.63;5.57;;;;;;;12.10;100.00;98789.78;5004565;28;20034;-74
2023/05/05 02:56:47;;;;;;;9.02;5.25;;;;;;;12.10;100.00;98790.59;5006955;28;20031;-74
2023/05/05 02:59:25;;;;;;;7.70;5.28;;;;;;;12.05;100.00;98788.56;4994749;28;20047;-73
2023/05/05 03:02:13;;;;;;;10.60;5.68;;;;;;;11.94;100.00;98791.91;4986998;28;20247;-74
2023/05/05 03:04:44;;;;;;;9.82;5.22;;;;;;;11.90;100.00;98801.53;5006657;28;20512;-73
2023/05/05 03:07:33;;;;;;;9.27;5.40;;;;;;;11.87;100.00;98801.97;4994489;28;20396;-74
2023/05/05 03:10:20;;;;;;;7.63;5.15;;;;;;;11.88;100.00;98800.91;4994406;28;20083;-74
2023/05/05 03:12:55;;;;;;;15.52;6.15;;;;;;;11.78;100.00;98804.00;4984996;28;20435;-73
2023/05/05 03:15:28;;;;;;;9.70;5.15;;;;;;;11.83;100.00;98811.50;4991658;28;20022;-74
2023/05/05 03:17:55;;;;;;;13.55;5.72;;;;;;;11.72;100.00;98804.03;4997721;28;20026;-74
2023/05/05 03:20:21;;;;;;;11.93;6.00;;;;;;;11.59;100.00;98810.28;4978618;28;20023;-73
2023/05/05 03:22:46;;;;;;;9.80;6.05;;;;;;;11.49;100.00;98809.88;4977641;28;20039;-74
2023/05/05 03:25:12;;;;;;;9.65;5.88;;;;;;;11.39;100.00;98800.28;4974403;28;20019;-74
2023/05/05 03:27:37;;;;;;;9.77;5.63;;;;;;;11.43;100.00;98814.25;4996544;28;20472;-73
2023/05/05 03:30:03;;;;;;;9.80;5.95;;;;;;;11.44;100.00;98801.53;4996222;28;20129;-73
2023/05/05 03:32:29;;;;;;;12.73;5.93;;;;;;;11.43;100.00;98789.88;4987643;28;20062;-74
2023/05/05 03:34:55;;;;;;;8.80;5.70;;;;;;;11.44;100.00;98799.66;4990046;28;20027;-74
2023/05/05 03:37:20;;;;;;;8.25;5.72;;;;;;;11.41;100.00;98792.78;4994726;28;20034;-74
2023/05/05 03:39:46;;;;;;;11.38;5.95;;;;;;;11.37;100.00;98783.44;4995739;28;20037;-73
2023/05/05 03:42:11;;;;;;;8.95;5.68;;;;;;;11.43;100.00;98795.31;4985385;28;20053;-74
2023/05/05 03:44:36;;;;;;;11.07;5.60;;;;;;;11.39;100.00;98805.69;4995134;28;20030;-74
2023/05/05 03:47:02;;;;;;;10.10;5.00;;;;;;;11.32;100.00;98804.06;4989064;28;20039;-76
2023/05/05 03:49:27;;;;;;;10.90;6.03;;;;;;;11.27;100.00;98806.56;4985590;28;20034;-74
2023/05/05 03:51:52;;;;;;;10.43;5.75;;;;;;;11.21;100.00;98796.53;4972553;28;20038;-75
2023/05/05 03:54:18;;;;;;;8.10;5.63;;;;;;;11.24;100.00;98806.94;4981122;28;20030;-75
2023/05/05 03:56:43;;;;;;;11.63;6.30;;;;;;;11.13;100.00;98784.88;4994307;28;20109;-74
2023/05/05 03:59:08;;;;;;;9.30;5.22;;;;;;;11.24;100.00;98809.66;4978112;28;20022;-75
2023/05/05 04:01:34;;;;;;;9.65;5.57;;;;;;;11.14;100.00;98802.78;4988934;28;20034;-77
2023/05/05 04:04:00;;;;;;;8.88;5.65;;;;;;;11.22;100.00;98814.47;4976705;28;20080;-77
2023/05/05 04:06:26;;;;;;;10.48;5.80;;;;;;;11.15;100.00;98804.44;4977187;28;20033;-78
2023/05/05 04:08:51;;;;;;;8.55;5.68;;;;;;;11.17;100.00;98799.66;4995659;28;20462;-78
2023/05/05 04:11:17;;;;;;;16.05;5.40;;;;;;;11.22;100.00;98800.94;4984654;28;20030;-76
2023/05/05 04:13:42;;;;;;;11.45;5.65;;;;;;;11.38;100.00;98819.47;4994735;28;20510;-75
2023/05/05 04:16:08;;;;;;;7.93;4.97;;;;;;;11.50;100.00;98814.25;4994792;28;20035;-78
2023/05/05 04:18:33;;;;;;;10.75;5.40;;;;;;;11.64;100.00;98813.22;4999306;28;20038;-78
2023/05/05 04:20:59;;;;;;;9.80;5.35;;;;;;;11.79;100.00;98821.94;5007969;28;20033;-76
2023/05/05 04:23:25;;;;;;;8.18;4.65;;;;;;;11.79;100.00;98811.09;5012133;28;20033;-77
2023/05/05 04:25:50;;;;;;;8.50;4.78;;;;;;;11.89;100.00;98802.56;5001585;28;20022;-79
2023/05/05 04:28:15;;;;;;;11.95;5.18;;;;;;;12.01;100.00;98809.00;5002500;28;20471;-76
2023/05/05 04:30:41;;;;;;;9.90;6.30;;;;;;;12.08;100.00;98811.72;4996552;28;20041;-77
2023/05/05 04:33:09;;;;;;;8.90;5.05;;;;;;;12.23;100.00;98808.72;5003404;28;20073;-76
2023/05/05 04:35:34;;;;;;;7.33;4.60;;;;;;;12.24;100.00;98807.69;4987187;28;20046;-75
2023/05/05 04:38:00;;;;;;;11.80;4.95;;;;;;;12.24;100.00;98805.81;4995293;28;20062;-75
2023/05/05 04:40:25;;;;;;;6.20;4.60;;;;;;;12.33;100.00;98805.56;5000565;28;20065;-78
2023/05/05 04:42:51;;;;;;;11.45;4.72;;;;;;;12.61;100.00;98825.06;4994928;28;20427;-75
2023/05/05 04:45:16;;;;;;;6.72;4.97;;;;;;;12.75;100.00;98812.25;4990082;28;20076;-75
2023/05/05 04:47:41;;;;;;;14.02;5.38;;;;;;;12.96;100.00;98810.25;4993959;28;20030;-75
2023/05/05 04:50:07;;;;;;;9.48;5.63;;;;;;;13.14;100.00;98821.22;4989455;28;20026;-75
2023/05/05 04:52:33;;;;;;;8.82;5.18;;;;;;;13.32;100.00;98824.03;4993326;28;20086;-77
2023/05/05 04:54:58;;;;;;;12.43;5.05;;;;;;;13.54;100.00;98823.66;4971110;28;20109;-76
2023/05/05 04:57:24;;;;;;;7.28;5.15;;;;;;;13.67;100.00;98822.69;4994259;28;20431;-73
2023/05/05 04:59:49;;;;;;;12.35;4.82;;;;;;;13.79;100.00;98819.03;4992169;28;20109;-72
2023/05/05 05:02:14;;;;;;;8.98;5.85;;;;;;;13.73;100.00;98821.84;4986070;28;20026;-75
2023/05/05 05:04:40;;;;;;;8.60;5.18;;;;;;;13.85;100.00;98825.47;4975671;28;20072;-73
2023/05/05 05:07:05;;;;;;;10.23;5.40;;;;;;;13.86;100.00;98827.16;4981778;28;20038;-74
2023/05/05 05:09:31;;;;;;;8.88;5.13;;;;;;;13.79;100.00;98838.06;4993408;28;20022;-74
2023/05/05 05:12:01;;;;;;;7.82;5.45;;;;;;;13.88;100.00;98832.34;4987691;28;20027;-74
2023/05/05 05:14:27;;;;;;;10.25;5.15;;;;;;;13.84;100.00;98833.88;4990223;28;20104;-74
2023/05/05 05:16:52;;;;;;;9.70;5.32;;;;;;;13.93;100.00;98832.50;4988079;28;20049;-75
2023/05/05 05:19:18;;;;;;;8.32;5.28;;;;;;;14.17;100.00;98842.53;4988126;28;20030;-74
2023/05/05 05:21:43;;;;;;;11.50;4.85;;;;;;;14.57;100.00;98835.81;4976320;28;20037;-73
2023/05/05 05:24:10;;;;;;;8.23;5.15;;;;;;;14.89;100.00;98840.00;4991477;28;20045;-74
2023/05/05 05:26:35;;;;;;;12.15;4.95;;;;;;;15.03;100.00;98829.72;4980408;28;20019;-74
2023/05/05 05:29:01;;;;;;;9.35;5.45;;;;;;;14.94;100.00;98822.97;5000043;28;20073;-75
2023/05/05 05:31:26;;;;;;;8.50;4.93;;;;;;;15.13;100.00;98832.72;5006040;28;20029;-73
2023/05/05 05:33:51;;;;;;;10.27;5.20;;;;;;;15.15;100.00;98834.41;5002481;28;20030;-73
2023/05/05 05:36:17;;;;;;;8.93;5.38;;;;;;;14.73;100.00;98842.53;5001057;28;20058;-73
2023/05/05 05:38:42;;;;;;;9.68;5.20;;;;;;;14.59;100.00;98850.88;4997275;28;20030;-73
2023/05/05 05:41:07;;;;;;;10.15;5.75;;;;;;;14.35;100.00;98847.13;4990298;28;20357;-75
2023/05/05 05:43:33;;;;;;;8.13;5.50;;;;;;;14.41;100.00;98851.69;4993694;28;20064;-75
2023/05/05 05:45:58;;;;;;;8.77;4.90;;;;;;;14.28;100.00;98862.72;4986819;28;20049;-76
2023/05/05 05:48:27;;;;;;;9.85;5.82;;;;;;;14.22;100.00;98852.72;4985601;28;20041;-75
2023/05/05 05:50:53;;;;;;;7.85;5.40;;;;;;;14.25;100.00;98860.41;5059375;22;20080;-72
2023/05/05 05:53:18;;;;;;;7.10;5.50;;;;;;;14.47;100.00;98844.47;5008555;28;20091;-74
2023/05/05 05:55:45;;;;;;;9.07;5.53;;;;;;;15.05;100.00;98846.69;5028567;28;20029;-71
2023/05/05 05:58:10;;;;;;;9.10;5.70;;;;;;;15.56;100.00;98848.03;5028910;28;20044;-72
2023/05/05 06:00:35;;;;;;;9.93;5.60;;;;;;;15.91;100.00;98855.44;5010477;28;20051;-73
2023/05/05 06:03:01;;;;;;;8.68;6.18;;;;;;;16.11;100.00;98843.31;5027813;28;20400;-72
2023/05/05 06:05:26;;;;;;;8.20;5.25;;;;;;;16.82;100.00;98861.28;5026313;28;20536;-73
2023/05/05 06:07:52;;;;;;;8.60;5.20;;;;;;;17.30;100.00;98854.53;5013757;28;20029;-70
2023/05/05 06:10:17;;;;;;;11.32;5.60;;;;;;;18.28;100.00;98864.34;5012031;28;20029;-72
2023/05/05 06:12:43;;;;;;;9.93;5.47;;;;;;;19.81;100.00;98843.34;5030309;28;20072;-71
2023/05/05 06:15:08;;;;;;;7.72;4.68;;;;;;;22.58;100.00;98848.41;5029507;28;20028;-71
2023/05/05 06:17:34;;;;;;;11.77;5.70;;;;;;;24.33;77.61;98842.56;5029837;28;20086;-72
2023/05/05 06:19:59;;;;;;;9.07;5.40;;;;;;;24.56;72.02;98858.38;5031002;28;20079;-71
2023/05/05 06:22:24;;;;;;;11.82;4.93;;;;;;;25.32;68.22;98845.53;5023273;28;20482;-71
2023/05/05 06:24:49;;;;;;;8.52;4.80;;;;;;;24.83;68.86;98857.78;5028592;28;20036;-72
2023/05/05 06:27:15;;;;;;;6.32;4.47;;;;;;;22.86;77.64;98849.69;5010332;28;20104;-71
2023/05/05 06:29:40;;;;;;;9.15;4.43;;;;;;;21.66;93.59;98849.34;5030113;28;20545;-70
2023/05/05 06:32:07;;;;;;;8.63;4.90;;;;;;;20.62;100.00;98847.69;5029471;28;20025;-74
2023/05/05 06:34:32;;;;;;;7.22;4.50;;;;;;;19.82;100.00;98837.56;5017435;28;20457;-74
2023/05/05 06:36:58;;;;;;;8.32;4.30;;;;;;;19.63;100.00;98848.09;5032461;28;20109;-73
2023/05/05 06:39:23;;;;;;;7.65;4.35;;;;;;;20.88;100.00;98849.47;5016081;28;20026;-73
2023/05/05 06:41:48;;;;;;;5.60;3.75;;;;;;;25.07;83.14;98835.63;5016503;28;20025;-75
2023/05/05 06:44:13;;;;;;;11.75;3.88;;;;;;;27.85;66.17;98843.13;5031941;28;20360;-70
2023/05/05 06:46:39;;;;;;;6.07;3.78;;;;;;;29.60;54.85;98828.69;5030694;28;20536;-70
2023/05/05 06:49:04;;;;;;;8.27;3.42;;;;;;;30.00;52.79;98848.84;5033173;28;20166;-72
2023/05/05 06:51:30;;;;;;;6.35;3.30;;;;;;;31.00;49.30;98846.72;5029026;28;20076;-72
2023/05/05 06:53:56;;;;;;;4.07;2.88;;;;;;;31.78;46.25;98848.94;5030249;28;20029;-82
2023/05/05 06:56:21;;;;;;;5.22;3.35;;;;;;;31.70;45.63;98823.81;5016598;28;20413;-75
2023/05/05 06:58:46;;;;;;;4.75;3.35;;;;;;;29.97;48.16;98849.50;5026833;28;20656;-76
2023/05/05 07:01:12;;;;;;;5.97;3.20;;;;;;;28.56;51.83;98857.97;5019744;28;20462;-75
2023/05/05 07:03:37;;;;;;;5.50;2.83;;;;;;;26.82;56.09;98858.47;5023870;28;20021;-74
2023/05/05 07:06:03;;;;;;;5.55;2.80;;;;;;;24.86;64.64;98856.34;5027412;28;20021;-72
2023/05/05 07:08:28;;;;;;;5.57;3.10;;;;;;;23.11;80.53;98867.28;5015784;28;20467;-71
2023/05/05 07:10:54;;;;;;;8.82;3.75;;;;;;;22.25;94.69;98852.66;5027256;28;20025;-70
2023/05/05 07:13:19;;;;;;;5.53;3.30;;;;;;;22.07;100.00;98860.34;5025462;28;20029;-69
2023/05/05 07:15:45;;;;;;;9.82;3.58;;;;;;;21.48;100.00;98857.31;5027651;28;20040;-69
2023/05/05 07:18:15;;;;;;;7.82;4.03;;;;;;;21.01;100.00;98875.63;5033561;28;20037;-71
2023/05/05 07:20:40;;;;;;;8.15;3.58;;;;;;;20.73;100.00;98866.72;5030573;28;20060;-69
2023/05/05 07:23:05;;;;;;;7.03;3.92;;;;;;;20.55;100.00;98864.44;5012682;28;20061;-70
2023/05/05 07:25:31;;;;;;;10.38;3.60;;;;;;;20.29;100.00;98867.00;5033240;28;20025;-74
2023/05/05 07:27:57;;;;;;;8.15;3.90;;;;;;;19.81;100.00;98859.81;5019597;28;20133;-70
2023/05/05 07:30:24;;;;;;;6.43;3.92;;;;;;;20.12;100.00;98861.69;5030168;28;21584;-68
2023/05/05 07:32:50;;;;;;;5.82;3.80;;;;;;;20.26;100.00;98869.47;5028866;28;20060;-70
2023/05/05 07:35:15;;;;;;;8.77;4.45;;;;;;;20.48;100.00;98869.31;5017525;28;20129;-73
2023/05/05 07:37:41;;;;;;;9.80;3.72;;;;;;;21.16;100.00;98850.91;5018265;28;20565;-71
2023/05/05 07:40:06;;;;;;;6.10;3.58;;;;;;;21.29;100.00;98868.00;5011670;28;20079;-72
2023/05/05 07:42:32;;;;;;;6.47;3.72;;;;;;;21.57;100.00;98858.44;5027583;28;20033;-74
2023/05/05 07:44:57;;;;;;;8.27;3.83;;;;;;;21.50;100.00;98885.41;5022062;28;20029;-70
2023/05/05 07:47:22;;;;;;;7.00;3.97;;;;;;;21.51;100.00;98845.75;5027556;28;20029;-70
2023/05/05 07:49:48;;;;;;;7.22;3.97;;;;;;;22.19;100.00;98873.03;5032877;28;20437;-67
2023/05/05 07:52:13;;;;;;;7.65;3.90;;;;;;;23.26;100.00;98872.69;5030785;28;20064;-67
2023/05/05 07:54:40;;;;;;;6.72;3.92;;;;;;;23.38;100.00;98858.53;5012503;28;20036;-69
2023/05/05 07:57:05;;;;;;;8.82;3.83;;;;;;;22.93;100.00;98866.78;5032104;28;20025;-68
2023/05/05 07:59:30;;;;;;;6.78;4.05;;;;;;;22.58;100.00;98875.16;5031987;28;20029;-68
2023/05/05 08:01:55;;;;;;;8.10;4.15;;;;;;;22.29;100.00;98867.50;5007122;28;20029;-68
2023/05/05 08:04:21;;;;;;;6.13;3.35;;;;;;;21.77;100.00;98863.13;5006319;28;20029;-69
2023/05/05 08:06:46;;;;;;;7.55;3.45;;;;;;;22.13;100.00;98863.94;5028901;28;20525;-69
2023/05/05 08:09:12;;;;;;;4.35;3.40;;;;;;;22.51;100.00;98879.06;4997447;28;20033;-70
2023/05/05 08:11:37;;;;;;;13.52;3.58;;;;;;;22.30;100.00;98852.66;4999963;28;20391;-70
2023/05/05 08:14:03;;;;;;;8.10;3.08;;;;;;;22.49;100.00;98861.97;5030236;28;20022;-68
2023/05/05 08:16:28;;;;;;;5.32;3.30;;;;;;;22.74;100.00;98880.38;5028359;28;20140;-68
2023/05/05 08:18:54;;;;;;;6.53;3.08;;;;;;;22.77;100.00;98867.94;5031364;28;20545;-68
2023/05/05 08:21:19;;;;;;;5.50;3.30;;;;;;;22.84;100.00;98873.97;5019826;28;20030;-67
2023/05/05 08:23:44;;;;;;;6.95;3.08;;;;;;;22.81;100.00;98869.03;5022981;28;20033;-68
2023/05/05 08:26:10;;;;;;;7.90;3.72;;;;;;;22.58;100.00;98884.25;5031215;28;20404;-68
2023/05/05 08:28:36;;;;;;;5.93;3.50;;;;;;;22.07;100.00;98867.81;5031045;28;20028;-69
2023/05/05 08:31:05;;;;;;;5.10;3.42;;;;;;;22.22;100.00;98876.09;5010904;28;20029;-69
2023/05/05 08:33:31;;;;;;;6.75;4.07;;;;;;;22.33;100.00;98882.41;5028371;28;20141;-75
2023/05/05 08:35:56;;;;;;;14.38;3.97;;;;;;;21.84;100.00;98877.44;5029112;28;20079;-75
2023/05/05 08:38:21;;;;;;;7.43;3.70;;;;;;;21.08;100.00;98870.69;5017493;28;20577;-75
2023/05/05 08:40:47;;;;;;;6.57;4.28;;;;;;;20.62;100.00;98881.53;5020837;28;20060;-74
2023/05/05 08:43:12;;;;;;;6.22;3.40;;;;;;;20.75;100.00;98871.94;5028517;28;20475;-74
2023/05/05 08:45:39;;;;;;;5.80;3.13;;;;;;;21.10;100.00;98868.50;5030294;28;20049;-72
2023/05/05 08:48:05;;;;;;;6.47;3.10;;;;;;;21.21;100.00;98881.19;5030667;28;20573;-71
2023/05/05 08:50:31;;;;;;;6.65;3.60;;;;;;;20.98;100.00;98881.66;5031389;28;20095;-73
2023/05/05 08:53:14;;;;;;;6.03;3.00;;;;;;;20.97;100.00;98885.53;5014150;28;20438;-72
2023/05/05 08:55:45;;;;;;;6.10;3.00;;;;;;;20.77;100.00;98881.56;5012907;28;20033;-72
2023/05/05 08:58:11;;;;;;;5.57;3.00;;;;;;;20.88;100.00;98878.88;5023612;28;20437;-72
2023/05/05 09:00:41;;;;;;;5.65;3.08;;;;;;;20.92;100.00;98878.06;5030731;28;20142;-72
2023/05/05 09:03:07;;;;;;;7.22;3.33;;;;;;;20.78;100.00;98882.44;5031143;28;20359;-71
2023/05/05 09:05:32;;;;;;;8.43;2.85;;;;;;;20.68;100.00;98885.13;5028958;28;20112;-69
2023/05/05 09:07:57;;;;;;;4.05;2.58;;;;;;;20.78;100.00;98876.94;5030572;28;20026;-72
2023/05/05 09:10:24;;;;;;;4.53;2.45;;;;;;;20.88;100.00;98887.13;5018284;28;20033;-75
2023/05/05 09:12:50;;;;;;;4.50;2.42;;;;;;;20.69;100.00;98873.84;5009854;28;20446;-68
2023/05/05 09:15:15;;;;;;;3.92;2.42;;;;;;;20.51;100.00;98874.25;5012238;28;20029;-70
2023/05/05 09:17:41;;;;;;;4.15;2.35;;;;;;;20.43;100.00;98863.78;5031572;28;20025;-69
2023/05/05 09:20:08;;;;;;;9.88;2.05;;;;;;;20.42;100.00;98893.19;5011798;28;20021;-77
2023/05/05 09:22:36;;;;;;;5.95;2.20;;;;;;;20.63;100.00;98893.34;5010209;28;20181;-72
2023/05/05 09:25:03;;;;;;;7.03;1.90;;;;;;;20.77;100.00;98881.56;5025549;28;20083;-73
2023/05/05 09:27:29;;;;;;;4.70;2.10;;;;;;;21.16;100.00;98870.16;5013010;28;20277;-74
2023/05/05 09:29:55;;;;;;;4.22;2.17;;;;;;;21.51;100.00;98852.13;5031731;28;20059;-74
2023/05/05 09:32:21;;;;;;;6.03;1.60;;;;;;;21.99;100.00;98876.63;5008975;28;20021;-71
2023/05/05 09:34:57;;;;;;;4.47;1.58;;;;;;;22.34;100.00;98880.47;5029546;28;20025;-71
2023/05/05 09:37:29;;;;;;;5.80;1.50;;;;;;;22.91;100.00;98891.06;5029060;28;20076;-71
2023/05/05 09:39:56;;;;;;;3.38;1.50;;;;;;;23.14;100.00;98872.22;5008943;28;20064;-71
2023/05/05 09:42:22;;;;;;;3.03;1.30;;;;;;;24.54;100.00;98881.94;5027144;28;20390;-71
2023/05/05 09:44:47;;;;;;;4.45;1.20;;;;;;;25.01;88.64;98883.03;5031043;28;20021;-71
2023/05/05 09:47:13;;;;;;;7.75;1.55;;;;;;;24.62;91.68;98856.38;5025292;28;20036;-71
2023/05/05 09:49:38;;;;;;;4.65;1.70;;;;;;;24.34;86.69;98847.81;5030162;28;20032;-71
2023/05/05 09:52:14;;;;;;;4.15;1.30;;;;;;;24.05;87.67;98873.53;5026197;28;20025;-70
2023/05/05 09:54:40;;;;;;;5.22;1.10;;;;;;;24.18;90.23;98869.28;5014222;28;20048;-72
2023/05/05 09:57:05;;;;;;;5.25;1.77;;;;;;;24.28;95.33;98860.84;5031824;28;20498;-75
2023/05/05 09:59:31;;;;;;;5.88;2.15;;;;;;;23.61;100.00;98840.44;5012954;28;20032;-74
2023/05/05 10:02:12;;;;;;;7.75;2.72;;;;;;;23.35;100.00;98857.19;5029809;28;20757;-75
2023/05/05 10:04:38;;;;;;;5.68;2.33;;;;;;;22.49;100.00;98855.63;5015438;28;20033;-72
2023/05/05 10:07:03;;;;;;;7.47;2.00;;;;;;;22.35;100.00;98851.78;5024553;28;20033;-72
2023/05/05 10:09:32;;;;;;;6.63;2.42;;;;;;;22.63;100.00;98856.66;5023392;28;20549;-72
2023/05/05 10:12:00;;;;;;;11.15;2.92;;;;;;;22.85;100.00;98870.13;5033811;28;20553;-73
2023/05/05 10:14:26;;;;;;;3.92;2.58;;;;;;;22.94;100.00;98870.34;5034922;28;20048;-72
2023/05/05 10:16:53;;;;;;;4.65;3.03;;;;;;;23.22;100.00;98866.09;5018755;28;20558;-72
2023/05/05 10:19:22;;;;;;;4.15;2.55;;;;;;;23.15;100.00;98879.38;5029924;28;20068;-71
2023/05/05 10:21:49;;;;;;;;;;;;;;;23.21;100.00;98869.94;5022200;28;20053;-70
2023/05/05 10:24:58;;;;;;;5.60;2.35;;;;;;;23.08;100.00;98865.91;5034280;28;20366;-71
2023/05/05 10:27:27;;;;;;;8.43;2.33;;;;;;;23.06;100.00;98856.25;4997279;28;20033;-70
2023/05/05 10:30:03;;;;;;;3.45;2.15;;;;;;;22.92;100.00;98859.63;5023545;28;20037;-70
2023/05/05 10:32:49;;;;;;;5.28;2.13;;;;;;;22.95;100.00;98863.72;5033391;28;20156;-70
2023/05/05 10:35:21;;;;;;;6.10;1.73;;;;;;;22.87;100.00;98856.88;5008327;28;20116;-70
2023/05/05 10:37:47;;;;;;;7.43;1.77;;;;;;;22.61;100.00;98844.28;5030428;28;20022;-70
2023/05/05 10:40:13;;;;;;;4.57;1.85;;;;;;;22.65;100.00;98848.94;5033291;28;20033;-70
2023/05/05 10:42:39;;;;;;;5.93;2.10;;;;;;;22.53;100.00;98851.19;5034139;28;20103;-69
2023/05/05 10:45:06;;;;;;;3.47;1.85;;;;;;;22.63;100.00;98842.06;5033834;28;20112;-70
2023/05/05 10:47:33;;;;;;;5.10;2.13;;;;;;;22.65;100.00;98845.38;5025050;28;20052;-70
2023/05/05 10:50:03;;;;;;;7.28;1.98;;;;;;;22.67;100.00;98835.72;5033972;28;20021;-70
2023/05/05 10:52:50;;;;;;;5.15;1.80;;;;;;;22.91;100.00;98841.38;5033762;28;20025;-70
2023/05/05 10:55:41;;;;;;;3.45;1.45;;;;;;;22.65;100.00;98842.63;5008786;28;20067;-70
2023/05/05 10:58:07;;;;;;;3.10;1.70;;;;;;;22.61;100.00;98831.34;5002251;28;20033;-69
2023/05/05 11:00:38;;;;;;;4.82;2.15;;;;;;;22.47;100.00;98836.59;5028658;28;20537;-71
2023/05/05 11:03:24;;;;;;;9.88;1.90;;;;;;;22.26;100.00;98840.50;5017454;28;20116;-71
2023/05/05 11:06:04;;;;;;;2.60;1.80;;;;;;;22.25;100.00;98836.94;5032436;28;20034;-72
2023/05/05 11:08:32;;;;;;;3.40;1.63;;;;;;;22.01;100.00;98833.94;5033258;28;20053;-70
2023/05/05 11:10:59;;;;;;;3.70;1.70;;;;;;;21.85;100.00;98830.38;5026496;28;20044;-71
2023/05/05 11:13:25;;;;;;;3.33;1.27;;;;;;;21.86;100.00;98825.69;5018964;28;20094;-71
2023/05/05 11:15:52;;;;;;;4.53;1.80;;;;;;;22.05;100.00;98818.47;5025391;28;20667;-70
2023/05/05 11:18:37;;;;;;;3.78;1.80;;;;;;;22.26;100.00;98823.97;5029091;28;21813;-69
2023/05/05 11:21:16;;;;;;;4.00;1.67;;;;;;;22.09;100.00;98819.59;5024895;28;20062;-69
2023/05/05 11:23:47;;;;;;;1.95;1.38;;;;;;;21.87;100.00;98817.13;5034600;28;20394;-70
2023/05/05 11:26:13;;;;;;;2.15;1.25;;;;;;;22.05;100.00;98801.94;5008767;28;20373;-70
2023/05/05 11:28:55;;;;;;;3.90;1.77;;;;;;;21.79;100.00;98801.16;5025273;28;20032;-69